Time;durP1;ratioP1;P1;durP2;ratioP2;P2;SDS_P1;SDS_P2;PMS_P1;PMS_P2;Temp;Humidity;BMP_temperature;BMP_pressure;BME280_temperature;BME280_humidity;BME280_pressure;Samples;Min_cycle;Max_cycle;Signal;HPM_P1;HPM_P2
2023/10/13 00:00:58;;;;;;;;;;;;;;;18.71;66.14;101888.81;5029871;28;20370;-86
2023/10/13 00:03:23;;;;;;;;;;;;;;;18.69;66.40;101889.63;5020381;28;20298;-86
2023/10/13 00:05:52;;;;;;;;;;;;;;;18.68;66.35;101887.78;5021300;28;19924;-86
2023/10/13 00:08:20;;;;;;;;;;;;;;;18.68;66.02;101883.41;4996021;28;20390;-85
2023/10/13 00:10:47;;;;;;;;;;;;;;;18.67;66.54;101878.97;5027064;28;19928;-85
2023/10/13 00:13:14;;;;;;;;;;;;;;;18.65;66.46;101878.00;5021781;28;19943;-85
2023/10/13 00:15:56;;;;;;;;;;;;;;;18.68;66.11;101878.09;5015430;28;19917;-86
2023/10/13 00:18:22;;;;;;;;;;;;;;;18.66;66.27;101874.50;5017478;28;19913;-85
2023/10/13 00:20:50;;;;;;;;;;;;;;;18.64;66.55;101872.63;4989980;28;19921;-87
2023/10/13 00:23:20;;;;;;;;;;;;;;;18.68;66.14;101870.16;5014808;28;19921;-84
2023/10/13 00:25:50;;;;;;;;;;;;;;;18.64;66.46;101864.69;5015275;28;19970;-87
2023/10/13 00:28:23;;;;;;;;;;;;;;;18.61;66.15;101870.78;5014423;28;19917;-86
2023/10/13 00:30:51;;;;;;;;;;;;;;;18.61;66.22;101873.44;5018711;28;19921;-85
2023/10/13 00:33:21;;;;;;;;;;;;;;;18.63;66.52;101876.16;5023192;28;19992;-86
2023/10/13 00:35:47;;;;;;;;;;;;;;;18.64;66.15;101867.34;5032293;28;20417;-86
2023/10/13 00:38:12;;;;;;;;;;;;;;;18.63;66.15;101866.47;5014430;28;20523;-84
2023/10/13 00:40:42;;;;;;;;;;;;;;;18.62;66.11;101862.00;5009438;28;19927;-85
2023/10/13 00:48:32;;;;;;;;;;;;;;;18.61;66.18;101864.59;5012068;28;19924;-85
2023/10/13 00:51:02;;;;;;;;;;;;;;;18.64;65.84;101867.34;5050493;28;19917;-85
2023/10/13 00:53:28;;;;;;;;;;;;;;;18.61;65.76;101862.84;5036530;28;19917;-85
2023/10/13 00:55:56;;;;;;;;;;;;;;;18.61;65.99;101862.84;5041499;28;19921;-84
2023/10/13 00:58:23;;;;;;;;;;;;;;;18.57;65.78;101865.31;5050870;28;19983;-85
2023/10/13 01:00:56;;;;;;;;;;;;;;;18.59;65.79;101866.28;5047544;28;19917;-84
2023/10/13 01:03:25;;;;;;;;;;;;;;;18.59;65.91;101859.25;5044376;28;19924;-86
2023/10/13 01:05:54;;;;;;;;;;;;;;;18.56;65.65;101861.75;5044622;28;19934;-83
2023/10/13 01:08:32;;;;;;;;;;;;;;;18.57;65.27;101860.03;5033624;28;20019;-84
2023/10/13 01:10:58;;;;;;;;;;;;;;;18.52;65.82;101863.41;5051528;28;19967;-84
2023/10/13 01:13:24;;;;;;;;;;;;;;;18.57;65.91;101863.56;5052679;28;19936;-85
2023/10/13 01:15:49;;;;;;;;;;;;;;;18.56;65.60;101867.03;5033955;28;19917;-84
2023/10/13 01:18:16;;;;;;;;;;;;;;;18.56;65.28;101863.50;5044590;28;20466;-84
2023/10/13 01:20:45;;;;;;;;;;;;;;;18.58;65.49;101860.06;5048028;28;19999;-84
2023/10/13 01:23:24;;;;;;;;;;;;;;;18.54;65.68;101850.19;5046603;28;19913;-84
2023/10/13 01:25:49;;;;;;;;;;;;;;;18.51;65.70;101844.81;5060831;28;20345;-84
2023/10/13 01:28:17;;;;;;;;;;;;;;;18.57;65.54;101847.69;5051399;28;19923;-85
2023/10/13 01:30:49;;;;;;;;;;;;;;;18.50;65.93;101841.28;5028753;28;19921;-84
2023/10/13 01:33:15;;;;;;;;;;;;;;;18.52;65.86;101843.97;5027903;28;20004;-84
2023/10/13 01:35:47;;;;;;;;;;;;;;;18.53;65.75;101837.84;5040187;28;20004;-85
2023/10/13 01:38:15;;;;;;;;;;;;;;;18.50;65.74;101843.91;5052030;28;19919;-86
2023/10/13 01:40:42;;;;;;;;;;;;;;;18.50;65.80;101843.03;5045799;28;19924;-85
2023/10/13 01:43:10;;;;;;;;;;;;;;;18.51;65.47;101843.06;5026674;28;19925;-84
2023/10/13 01:45:39;;;;;;;;;;;;;;;18.46;65.77;101842.00;5053210;28;20404;-83
2023/10/13 01:48:04;;;;;;;;;;;;;;;18.50;65.70;101845.66;5019802;28;19971;-85
2023/10/13 01:50:30;;;;;;;;;;;;;;;18.47;65.41;101837.59;5022518;28;19944;-84
2023/10/13 01:53:14;;;;;;;;;;;;;;;18.48;65.52;101840.31;5050307;28;19927;-84
2023/10/13 01:55:43;;;;;;;;;;;;;;;18.52;65.39;101842.22;5038137;28;19928;-84
2023/10/13 01:58:15;;;;;;;;;;;;;;;18.49;65.61;101846.50;5033288;28;19976;-84
2023/10/13 02:00:44;;;;;;;;;;;;;;;18.45;65.44;101839.28;5033129;28;19952;-84
2023/10/13 02:03:16;;;;;;;;;;;;;;;18.43;65.73;101849.78;5035698;28;19916;-84
2023/10/13 02:05:57;;;;;;;;;;;;;;;18.44;65.52;101848.97;5033471;28;19953;-85
2023/10/13 02:08:23;;;;;;;;;;;;;;;18.46;65.60;101849.03;5037826;28;20424;-86
2023/10/13 02:10:52;;;;;;;;;;;;;;;18.44;65.66;101845.44;5033597;28;19927;-85
2023/10/13 02:13:19;;;;;;;;;;;;;;;18.43;65.51;101841.84;5034061;28;19942;-85
2023/10/13 02:15:45;;;;;;;;;;;;;;;18.40;65.37;101833.81;5045528;28;19913;-85
2023/10/13 02:18:12;;;;;;;;;;;;;;;18.41;65.63;101835.59;5030570;28;19920;-86
2023/10/13 02:20:43;;;;;;;;;;;;;;;18.38;65.49;101831.97;5038052;28;19920;-85
2023/10/13 02:23:12;;;;;;;;;;;;;;;18.41;65.63;101838.25;5017998;28;19928;-85
2023/10/13 02:25:45;;;;;;;;;;;;;;;18.44;65.54;101834.84;5039957;28;19928;-85
2023/10/13 02:28:14;;;;;;;;;;;;;;;18.40;65.49;101833.81;5021359;28;19928;-86
2023/10/13 02:30:48;;;;;;;;;;;;;;;18.42;65.40;101837.44;5031011;28;19970;-85
2023/10/13 02:33:14;;;;;;;;;;;;;;;18.40;65.57;101828.53;5032208;28;19920;-85
2023/10/13 02:35:50;;;;;;;;;;;;;;;18.41;65.18;101832.06;5029665;28;19924;-85
2023/10/13 02:38:16;;;;;;;;;;;;;;;18.40;65.25;101844.41;5050935;28;20551;-85
2023/10/13 02:40:42;;;;;;;;;;;;;;;18.36;65.42;101847.75;5049275;28;20019;-85
2023/10/13 02:43:07;;;;;;;;;;;;;;;18.39;65.35;101842.56;5023293;28;20003;-84
2023/10/13 02:45:36;;;;;;;;;;;;;;;18.36;65.29;101842.47;5039570;28;19924;-86
2023/10/13 02:48:17;;;;;;;;;;;;;;;18.34;65.42;101830.94;5062627;28;20402;-85
2023/10/13 02:50:44;;;;;;;;;;;;;;;18.34;64.99;101832.69;5029945;28;20489;-85
2023/10/13 02:53:12;;;;;;;;;;;;;;;18.31;65.38;101837.00;5016862;28;19932;-85
2023/10/13 02:55:39;;;;;;;;;;;;;;;18.31;65.31;101833.47;5056611;28;19924;-86
2023/10/13 02:58:04;;;;;;;;;;;;;;;18.32;65.09;101835.25;5030228;28;19924;-86
2023/10/13 03:00:31;;;;;;;;;;;;;;;18.30;65.21;101835.19;5043934;28;19917;-84
2023/10/13 03:03:00;;;;;;;;;;;;;;;18.29;65.32;101833.41;5030361;28;19946;-85
2023/10/13 03:05:31;;;;;;;;;;;;;;;18.31;65.16;101837.00;5052528;28;19982;-85
2023/10/13 03:07:58;;;;;;;;;;;;;;;18.35;65.14;101842.41;5022070;28;19960;-86
2023/10/13 03:10:28;;;;;;;;;;;;;;;18.28;65.35;101844.78;5052180;28;20287;-86
2023/10/13 03:12:54;;;;;;;;;;;;;;;18.31;65.46;101836.09;5052534;28;20390;-84
2023/10/13 03:15:21;;;;;;;;;;;;;;;18.29;65.46;101832.50;5058078;28;19917;-85
2023/10/13 03:17:49;;;;;;;;;;;;;;;18.25;65.18;101836.75;5044045;28;20204;-84
2023/10/13 03:20:16;;;;;;;;;;;;;;;18.26;65.14;101829.72;5055741;28;19921;-86
2023/10/13 03:22:45;;;;;;;;;;;;;;;18.27;65.07;101824.50;5056771;28;19917;-84
2023/10/13 03:30:20;;;;;;;;;;;;;;;18.29;65.04;101832.50;5060093;28;20456;-86
2023/10/13 03:32:48;;;;;;;;;;;;;;;18.25;65.06;101823.53;5035330;28;19971;-85
2023/10/13 03:35:23;;;;;;;;;;;;;;;18.23;65.31;101825.22;5039951;28;20428;-86
2023/10/13 03:37:49;;;;;;;;;;;;;;;18.23;64.90;101827.88;5060047;28;19979;-84
2023/10/13 03:43:09;;;;;;;;;;;;;;;18.22;65.38;101820.75;5059097;28;19924;-85
2023/10/13 03:45:39;;;;;;;;;;;;;;;18.23;64.75;101817.28;5048943;28;19925;-85
2023/10/13 03:48:09;;;;;;;;;;;;;;;18.21;65.01;101815.44;5052828;28;19957;-86
2023/10/13 03:50:48;;;;;;;;;;;;;;;18.23;64.97;101819.94;5059076;28;19916;-85
2023/10/13 03:53:14;;;;;;;;;;;;;;;18.16;65.07;101809.97;5037287;28;19916;-87
2023/10/13 03:55:39;;;;;;;;;;;;;;;18.17;65.11;101816.16;5035946;28;19927;-87
2023/10/13 03:58:06;;;;;;;;;;;;;;;18.13;65.60;101819.50;5048407;28;19917;-87
2023/10/13 04:00:32;;;;;;;;;;;;;;;18.17;65.16;101814.41;5049682;28;20663;-87
2023/10/13 04:03:09;;;;;;;;;;;;;;;18.16;64.84;101819.63;5017031;28;19927;-87
2023/10/13 04:06:42;;;;;;;;;;;;;;;18.18;65.23;101816.22;5034659;28;19921;-86
2023/10/13 04:16:14;;;;;;;;;;;;;;;18.17;64.70;101824.09;5031496;28;20370;-88
2023/10/13 04:24:38;;;;;;;;;;;;;;;18.10;64.77;101820.28;5035654;28;19924;-90
2023/10/13 04:27:29;;;;;;;;;;;;;;;18.17;64.38;101817.03;5034673;28;19916;-88
2023/10/13 04:30:10;;;;;;;;;;;;;;;18.10;64.72;101821.19;5050202;28;20423;-88
2023/10/13 04:32:41;;;;;;;;;;;;;;;18.12;64.63;101826.53;5019335;28;19924;-88
2023/10/13 04:40:18;;;;;;;;;;;;;;;18.08;64.61;101845.75;5022802;28;19921;-87
2023/10/13 04:42:50;;;;;;;;;;;;;;;18.06;64.76;101852.72;5033546;28;19928;-86
2023/10/13 04:46:35;;;;;;;;;;;;;;;18.03;64.76;101850.88;5036154;28;19987;-89
2023/10/13 04:48:17;;;;;;;;;;;;;;;18.05;64.48;101846.50;5034041;28;19975;-86
2023/10/13 04:50:47;;;;;;;;;;;;;;;18.04;64.51;101860.59;5012331;28;20081;-86
2023/10/13 04:53:45;;;;;;;;;;;;;;;18.06;64.49;101861.56;5029410;28;20418;-85
2023/10/13 06:30:38;;;;;;;;;;;;;;;17.87;64.62;101914.50;5064363;28;19923;-88
2023/10/13 06:33:28;;;;;;;;;;;;;;;17.87;64.42;101920.66;5021650;28;19913;-89
2023/10/13 06:35:56;;;;;;;;;;;;;;;17.88;64.46;101919.81;5042272;28;19921;-88
2023/10/13 06:38:22;;;;;;;;;;;;;;;17.88;64.35;101919.81;5013215;28;19920;-88
2023/10/13 06:40:50;;;;;;;;;;;;;;;17.88;64.66;101918.91;5034814;28;20679;-89
2023/10/13 06:43:16;;;;;;;;;;;;;;;17.88;64.81;101914.53;5015499;28;20039;-89
2023/10/13 06:46:00;;;;;;;;;;;;;;;17.88;64.45;101916.28;5033725;28;19929;-88
2023/10/13 06:48:26;;;;;;;;;;;;;;;17.90;64.59;101911.97;5038117;28;20423;-87
2023/10/13 06:50:55;;;;;;;;;;;;;;;17.87;64.74;101909.22;5025978;28;19924;-87
2023/10/13 06:53:22;;;;;;;;;;;;;;;17.85;64.66;101903.84;5035334;28;19975;-89
2023/10/13 06:55:49;;;;;;;;;;;;;;;17.85;64.85;101903.84;5035212;28;19975;-88
2023/10/13 06:58:17;;;;;;;;;;;;;;;17.82;64.94;101901.09;5043820;28;19923;-88
2023/10/13 07:00:59;;;;;;;;;;;;;;;17.80;65.01;101910.66;5048146;28;20008;-89
2023/10/13 07:03:52;;;;;;;;;;;;;;;17.79;64.98;101906.19;5059225;28;19952;-89
2023/10/13 07:06:56;;;;;;;;;;;;;;;17.83;64.84;101897.59;5042770;28;19928;-89
2023/10/13 07:15:31;;;;;;;;;;;;;;;17.75;65.33;101895.44;5031821;28;19944;-89
2023/10/13 07:18:22;;;;;;;;;;;;;;;17.70;65.54;101906.69;5045040;28;19920;-89
2023/10/13 07:27:05;;;;;;;;;;;;;;;17.65;65.42;101902.03;5051494;28;19986;-88
2023/10/13 07:29:35;;;;;;;;;;;;;;;17.63;65.68;101904.66;5047177;28;19960;-89
2023/10/13 07:32:35;;;;;;;;;;;;;;;17.60;65.71;101908.88;5024045;28;20436;-89
2023/10/13 07:35:30;;;;;;;;;;;;;;;17.60;65.90;101906.25;5045218;28;20409;-89
2023/10/13 07:38:08;;;;;;;;;;;;;;;17.57;66.03;101914.94;5049341;28;19944;-89
2023/10/13 07:43:08;;;;;;;;;;;;;;;17.58;65.82;101918.47;5041630;28;19920;-89
2023/10/13 07:45:51;;;;;;;;;;;;;;;17.57;66.31;101917.59;5020096;28;19935;-88
2023/10/13 07:48:20;;;;;;;;;;;;;;;17.57;66.50;101917.59;5017130;28;19951;-88
2023/10/13 07:50:48;;;;;;;;;;;;;;;17.59;66.07;101920.25;5056389;28;19955;-88
2023/10/13 07:53:23;;;;;;;;;;;;;;;17.56;66.20;101912.22;5033209;28;19917;-90
2023/10/13 07:55:55;;;;;;;;;;;;;;;17.56;66.24;101907.84;5031222;28;20306;-88
2023/10/13 07:58:25;;;;;;;;;;;;;;;17.55;66.77;101908.69;5051749;28;19920;-89
2023/10/13 08:01:06;;;;;;;;;;;;;;;17.57;66.52;101916.66;5019071;28;20003;-90
2023/10/13 08:03:43;;;;;;;;;;;;;;;17.55;66.12;101905.16;5040677;28;19919;-89
2023/10/13 08:06:19;;;;;;;;;;;;;;;17.61;66.39;101901.03;5029441;28;19971;-89
2023/10/13 08:08:50;;;;;;;;;;;;;;;17.67;66.12;101897.72;5031423;28;20397;-89
2023/10/13 08:11:34;;;;;;;;;;;;;;;17.68;65.88;101883.72;5045436;28;19948;-89
2023/10/13 08:14:11;;;;;;;;;;;;;;;17.60;66.80;101890.41;5025953;28;19967;-89
2023/10/13 08:19:17;;;;;;;;;;;;;;;17.56;66.47;101894.63;5037869;28;19916;-90
2023/10/13 08:21:57;;;;;;;;;;;;;;;17.55;66.79;101903.41;5036328;28;19913;-94
2023/10/13 08:24:29;;;;;;;;;;;;;;;17.56;66.79;101899.91;5040568;28;19928;-86
2023/10/13 08:27:15;;;;;;;;;;;;;;;17.57;67.02;101901.72;5032741;28;19920;-93
2023/10/13 08:44:03;;;;;;;;;;;;;;;17.59;66.31;101889.50;5046140;28;19923;-91
2023/10/13 08:46:28;;;;;;;;;;;;;;;17.58;66.89;101889.41;5042855;28;19917;-92
2023/10/13 08:52:05;;;;;;;;;;;;;;;17.58;67.17;101886.78;5041769;28;19923;-92
2023/10/13 08:55:03;;;;;;;;;;;;;;;17.57;67.22;101874.41;5036656;28;20393;-93
2023/10/13 09:00:55;;;;;;;;;;;;;;;17.57;67.07;101870.03;5057967;28;20313;-92
2023/10/13 09:03:53;;;;;;;;;;;;;;;17.57;67.35;101872.69;5026436;28;19985;-93
2023/10/13 09:06:27;;;;;;;;;;;;;;;17.60;67.29;101869.25;5059368;28;19998;-92
2023/10/13 09:09:26;;;;;;;;;;;;;;;17.59;67.38;101868.38;5047482;28;20747;-94
2023/10/13 09:12:07;;;;;;;;;;;;;;;17.60;66.88;101862.22;5028807;28;20378;-94
2023/10/13 09:14:44;;;;;;;;;;;;;;;17.58;67.09;101865.66;5041180;28;19923;-93
2023/10/13 09:17:38;;;;;;;;;;;;;;;17.59;67.28;101855.16;5032863;28;19917;-91
2023/10/13 09:23:09;;;;;;;;;;;;;;;17.70;67.01;101861.78;5032922;28;19917;-90
2023/10/13 09:25:36;;;;;;;;;;;;;;;17.62;67.27;101857.91;5028403;28;19920;-89
2023/10/13 09:28:14;;;;;;;;;;;;;;;17.60;67.19;101861.34;5018395;28;20329;-90
2023/10/13 09:30:59;;;;;;;;;;;;;;;17.61;67.19;101860.47;5036046;28;19913;-92
2023/10/13 09:33:40;;;;;;;;;;;;;;;17.63;66.86;101856.16;5016374;28;20016;-91
2023/10/13 09:36:13;;;;;;;;;;;;;;;17.59;67.74;101863.09;5036259;28;19913;-93
2023/10/13 09:39:10;;;;;;;;;;;;;;;17.59;67.72;101864.78;5058103;28;20028;-90
2023/10/13 09:41:40;;;;;;;;;;;;;;;17.58;67.41;101863.00;5034608;28;19921;-92
2023/10/13 09:44:08;;;;;;;;;;;;;;;17.63;67.43;101862.38;5027186;28;19916;-90
2023/10/13 09:46:44;;;;;;;;;;;;;;;17.62;67.24;101862.31;5033776;28;19982;-91
2023/10/13 09:49:22;;;;;;;;;;;;;;;17.63;67.61;101861.44;5025153;28;19927;-89
2023/10/13 09:51:48;;;;;;;;;;;;;;;17.63;67.83;101859.75;5035328;28;20374;-90
2023/10/13 09:54:23;;;;;;;;;;;;;;;17.61;67.61;101853.50;5035778;28;19913;-90
2023/10/13 09:57:12;;;;;;;;;;;;;;;17.64;67.30;101850.06;5040532;28;19913;-90
2023/10/13 09:59:53;;;;;;;;;;;;;;;17.67;67.36;101855.47;5029296;28;20390;-90
2023/10/13 10:02:25;;;;;;;;;;;;;;;17.93;67.52;101842.47;5051758;28;19927;-88
2023/10/13 10:04:52;;;;;;;;;;;;;;;18.01;66.63;101839.34;5023501;28;19971;-90
2023/10/13 10:07:28;;;;;;;;;;;;;;;17.78;66.95;101841.00;5018263;28;19917;-91
2023/10/13 10:10:00;;;;;;;;;;;;;;;17.65;66.37;101834.28;5041795;28;19917;-94
2023/10/13 10:12:46;;;;;;;;;;;;;;;17.96;65.81;101834.69;5021542;28;20003;-89
2023/10/13 10:15:30;;;;;;;;;;;;;;;17.92;64.36;101832.75;5035680;28;19913;-91
2023/10/13 10:17:55;;;;;;;;;;;;;;;17.94;63.42;101839.00;5059750;28;20400;-90
2023/10/13 10:20:41;;;;;;;;;;;;;;;18.01;63.19;101835.75;5016893;28;19913;-91
2023/10/13 10:23:17;;;;;;;;;;;;;;;18.02;62.43;101838.47;5019402;28;19921;-88
2023/10/13 10:25:44;;;;;;;;;;;;;;;18.07;62.03;101836.00;5026683;28;19929;-88
2023/10/13 10:28:15;;;;;;;;;;;;;;;18.14;61.74;101829.22;5041845;28;20397;-88
2023/10/13 10:30:42;;;;;;;;;;;;;;;18.19;61.24;101825.03;5042560;28;19966;-88
2023/10/13 10:33:15;;;;;;;;;;;;;;;18.17;61.29;101832.91;5033770;28;19967;-90
2023/10/13 10:35:47;;;;;;;;;;;;;;;18.21;60.98;101829.53;5050856;28;20640;-88
2023/10/13 10:38:24;;;;;;;;;;;;;;;18.29;60.44;101828.09;5033233;28;20299;-89
2023/10/13 10:41:04;;;;;;;;;;;;;;;18.24;60.44;101826.13;5022439;28;19919;-89
2023/10/13 10:43:42;;;;;;;;;;;;;;;18.24;60.27;101823.47;5037001;28;19917;-88
2023/10/13 10:46:14;;;;;;;;;;;;;;;18.32;60.15;101824.69;5034652;28;19927;-88
2023/10/13 10:48:42;;;;;;;;;;;;;;;18.30;60.06;101821.06;5032535;28;19956;-89
2023/10/13 10:51:21;;;;;;;;;;;;;;;18.35;59.79;101819.53;5033254;28;19912;-88
2023/10/13 10:53:51;;;;;;;;;;;;;;;18.41;59.75;101813.56;5032663;28;20362;-89
2023/10/13 10:56:20;;;;;;;;;;;;;;;18.45;59.27;101812.81;5020913;28;19920;-88
2023/10/13 10:58:54;;;;;;;;;;;;;;;18.52;58.96;101804.31;5024743;28;20302;-89
2023/10/13 11:01:21;;;;;;;;;;;;;;;18.39;59.06;101810.84;5033734;28;19913;-89
2023/10/13 11:03:58;;;;;;;;;;;;;;;18.40;59.02;101806.47;5033406;28;19916;-89
2023/10/13 11:06:25;;;;;;;;;;;;;;;18.49;58.96;101799.78;5017695;28;20572;-88
2023/10/13 11:09:03;;;;;;;;;;;;;;;18.51;58.69;101795.44;5017451;28;20371;-90
2023/10/13 11:11:34;;;;;;;;;;;;;;;18.65;58.21;101803.03;5029068;28;20390;-89
2023/10/13 11:14:13;;;;;;;;;;;;;;;18.54;58.50;101799.94;5042641;28;19912;-90
2023/10/13 11:16:53;;;;;;;;;;;;;;;18.62;58.09;101803.78;5019200;28;19913;-89
2023/10/13 11:19:34;;;;;;;;;;;;;;;18.69;57.76;101797.91;5022275;28;19920;-88
2023/10/13 11:22:10;;;;;;;;;;;;;;;18.65;57.69;101803.91;5017323;28;20368;-89
2023/10/13 11:24:42;;;;;;;;;;;;;;;18.68;57.87;101811.06;5024972;28;20275;-89
2023/10/13 11:27:21;;;;;;;;;;;;;;;18.61;57.82;101802.00;5055293;28;19928;-89
2023/10/13 11:29:52;;;;;;;;;;;;;;;18.56;57.81;101798.25;5023976;28;19948;-90
2023/10/13 11:32:20;;;;;;;;;;;;;;;18.56;57.82;101805.31;5024192;28;19917;-89
2023/10/13 11:34:51;;;;;;;;;;;;;;;18.63;57.80;101804.72;5039911;28;19935;-89
2023/10/13 11:37:37;;;;;;;;;;;;;;;18.66;57.39;101808.34;5025024;28;20021;-89
2023/10/13 11:40:10;;;;;;;;;;;;;;;18.66;57.30;101808.34;5038497;28;19943;-89
2023/10/13 11:42:37;;;;;;;;;;;;;;;18.73;57.35;101798.88;5035424;28;20287;-90
2023/10/13 11:45:28;;;;;;;;;;;;;;;18.76;57.03;101800.78;5047015;28;19925;-89
2023/10/13 11:47:50;;;;;;;;;;;;;;;18.76;57.09;101801.66;5040196;28;20012;-89
2023/10/13 11:50:32;;;;;;;;;;;;;;;18.94;56.65;101796.16;5054616;28;19917;-89
2023/10/13 11:52:57;;;;;;;;;;;;;;;18.96;56.23;101794.47;5039399;28;19924;-89
2023/10/13 11:55:24;;;;;;;;;;;;;;;18.95;56.36;101794.44;5028955;28;19925;-88
2023/10/13 11:57:50;;;;;;;;;;;;;;;19.08;56.02;101799.31;5041467;28;19936;-91
2023/10/13 12:00:26;;;;;;;;;;;;;;;19.09;55.82;101801.09;5011737;28;19917;-88
2023/10/13 12:05:49;;;;;;;;;;;;;;;19.07;55.76;101805.44;5034876;28;19975;-90
2023/10/13 12:08:22;;;;;;;;;;;;;;;19.16;55.62;101794.31;5043902;28;20042;-90
2023/10/13 12:11:00;;;;;;;;;;;;;;;19.58;57.05;101801.91;5020942;28;20369;-88
2023/10/13 12:13:34;;;;;;;;;;;;;;;20.20;56.38;101800.44;5022506;28;19994;-91
2023/10/13 12:16:08;;;;;;;;;;;;;;;20.48;56.63;101790.66;5020469;28;19912;-90
2023/10/13 12:18:35;;;;;;;;;;;;;;;19.66;56.94;101793.41;5047796;28;19924;-90
2023/10/13 12:21:07;;;;;;;;;;;;;;;19.57;56.81;101793.06;5054854;28;19940;-91
2023/10/13 12:23:38;;;;;;;;;;;;;;;19.54;56.65;101795.63;5044314;28;19924;-91
2023/10/13 12:26:18;;;;;;;;;;;;;;;19.51;56.33;101790.22;5012021;28;19975;-90
2023/10/13 12:28:51;;;;;;;;;;;;;;;19.51;56.00;101792.84;5035563;28;19924;-90
2023/10/13 12:31:17;;;;;;;;;;;;;;;19.50;55.93;101793.72;5030726;28;19925;-88
2023/10/13 12:33:48;;;;;;;;;;;;;;;19.40;56.00;101796.91;5052558;28;19917;-89
2023/10/13 12:49:49;;;;;;;;;;;;;;;19.65;60.25;101802.19;5035019;28;19943;-90
2023/10/13 12:52:19;;;;;;;;;;;;;;;19.44;60.24;101794.41;5040626;28;19983;-90
2023/10/13 12:55:10;;;;;;;;;;;;;;;19.42;58.53;101803.16;5038217;28;19923;-87
2023/10/13 12:57:34;;;;;;;;;;;;;;;19.39;57.59;101800.38;5049409;28;19923;-87
2023/10/13 12:59:59;;;;;;;;;;;;;;;19.33;57.35;101801.97;5065104;28;20600;-88
2023/10/13 13:02:25;;;;;;;;;;;;;;;19.23;57.29;101809.56;5052328;28;20577;-87
2023/10/13 13:04:54;;;;;;;;;;;;;;;19.28;56.93;101798.28;5017267;28;19921;-88
2023/10/13 13:07:20;;;;;;;;;;;;;;;19.27;56.63;101792.94;5056283;28;19924;-88
2023/10/13 13:09:45;;;;;;;;;;;;;;;19.30;56.40;101793.03;5035447;28;19935;-89
2023/10/13 13:12:12;;;;;;;;;;;;;;;19.24;56.50;101798.09;5037541;28;20402;-90
2023/10/13 13:14:40;;;;;;;;;;;;;;;19.21;56.32;101784.75;5041738;28;19959;-88
2023/10/13 13:17:05;;;;;;;;;;;;;;;19.29;56.04;101792.13;5033106;28;19951;-87
2023/10/13 13:19:36;;;;;;;;;;;;;;;19.26;56.09;101785.81;5055325;28;19968;-87
2023/10/13 13:22:05;;;;;;;;;;;;;;;19.30;55.91;101785.06;5030636;28;19928;-88
2023/10/13 13:24:31;;;;;;;;;;;;;;;19.32;55.82;101791.31;5025372;28;20360;-88
2023/10/13 13:27:02;;;;;;;;;;;;;;;19.19;56.00;101795.28;5017934;28;19913;-88
2023/10/13 13:29:30;;;;;;;;;;;;;;;19.26;55.71;101794.69;5032441;28;19928;-88
2023/10/13 13:31:56;;;;;;;;;;;;;;;19.20;55.95;101797.13;5053594;28;19913;-88
2023/10/13 13:34:22;;;;;;;;;;;;;;;19.22;55.71;101792.78;5050240;28;20534;-87
2023/10/13 13:36:52;;;;;;;;;;;;;;;19.24;55.62;101792.81;5024907;28;20378;-88
2023/10/13 13:39:28;;;;;;;;;;;;;;;19.34;55.34;101794.94;5057613;28;19921;-87
2023/10/13 13:41:56;;;;;;;;;;;;;;;19.25;55.51;101786.69;5041612;28;20395;-89
2023/10/13 13:44:29;;;;;;;;;;;;;;;19.24;55.36;101790.16;5032462;28;19921;-91
2023/10/13 13:46:56;;;;;;;;;;;;;;;19.28;55.29;101790.34;5038063;28;19913;-89
2023/10/13 13:49:29;;;;;;;;;;;;;;;19.32;55.20;101788.69;5005911;28;19967;-89
2023/10/13 13:51:55;;;;;;;;;;;;;;;19.18;55.44;101790.88;5034862;28;20020;-88
2023/10/13 13:54:28;;;;;;;;;;;;;;;19.33;55.09;101787.84;5034452;28;20008;-89
2023/10/13 13:57:13;;;;;;;;;;;;;;;19.29;55.03;101786.84;5043244;28;19913;-88
2023/10/13 14:00:06;;;;;;;;;;;;;;;19.21;55.31;101784.75;5032274;28;19916;-87
2023/10/13 14:02:36;;;;;;;;;;;;;;;19.26;55.06;101786.75;5045498;28;20018;-88
2023/10/13 14:05:06;;;;;;;;;;;;;;;19.24;55.06;101782.22;5039247;28;19921;-88
2023/10/13 14:07:37;;;;;;;;;;;;;;;19.35;54.68;101787.91;5022043;28;19924;-88
2023/10/13 14:10:06;;;;;;;;;;;;;;;19.31;54.80;101784.25;5033153;28;20424;-87
2023/10/13 14:12:41;;;;;;;;;;;;;;;19.29;54.73;101785.94;5037051;28;19924;-89
2023/10/13 14:15:19;;;;;;;;;;;;;;;19.32;54.59;101792.25;5027374;28;19913;-88
2023/10/13 14:17:48;;;;;;;;;;;;;;;19.28;54.62;101786.78;5034666;28;20455;-89
2023/10/13 14:20:20;;;;;;;;;;;;;;;19.25;54.83;101790.22;5030840;28;19927;-89
2023/10/13 14:22:48;;;;;;;;;;;;;;;19.31;54.68;101786.91;5034679;28;20382;-88
2023/10/13 14:25:14;;;;;;;;;;;;;;;19.44;54.32;101790.88;5017384;28;19921;-86
2023/10/13 14:27:41;;;;;;;;;;;;;;;19.35;54.49;101796.75;5027167;28;20398;-88
2023/10/13 14:30:06;;;;;;;;;;;;;;;19.23;54.63;101791.91;5014230;28;19979;-88
2023/10/13 14:32:32;;;;;;;;;;;;;;;19.37;54.28;101788.84;5051591;28;20212;-88
2023/10/13 14:35:00;;;;;;;;;;;;;;;19.35;54.26;101787.91;5038173;28;19923;-88
2023/10/13 14:37:31;;;;;;;;;;;;;;;19.41;54.17;101789.00;5041743;28;19920;-88
2023/10/13 14:39:57;;;;;;;;;;;;;;;19.43;54.00;101786.41;5025708;28;20011;-88
2023/10/13 14:42:23;;;;;;;;;;;;;;;19.39;54.07;101776.53;5051139;28;19987;-89
2023/10/13 14:44:55;;;;;;;;;;;;;;;19.29;54.34;101773.59;5006765;28;20012;-90
2023/10/13 14:47:29;;;;;;;;;;;;;;;19.34;54.33;101773.75;5040110;28;20292;-89
2023/10/13 14:49:58;;;;;;;;;;;;;;;19.33;54.11;101779.91;5006662;28;19921;-88
2023/10/13 14:52:24;;;;;;;;;;;;;;;19.31;54.15;101785.13;5029479;28;19979;-87
2023/10/13 14:54:55;;;;;;;;;;;;;;;19.42;54.06;101780.19;5022028;28;20387;-88
2023/10/13 14:57:25;;;;;;;;;;;;;;;19.40;53.97;101778.34;5044280;28;19913;-93
2023/10/13 14:59:52;;;;;;;;;;;;;;;19.37;54.16;101780.88;5001474;28;19987;-91
2023/10/13 15:02:22;;;;;;;;;;;;;;;19.42;53.77;101776.66;5007758;28;20016;-91
2023/10/13 15:04:51;;;;;;;;;;;;;;;19.32;54.21;101778.09;5029614;28;20014;-93
2023/10/13 15:07:22;;;;;;;;;;;;;;;19.32;54.04;101780.72;5051838;28;19935;-91
2023/10/13 15:10:03;;;;;;;;;;;;;;;19.35;54.02;101780.84;5033819;28;19924;-92
2023/10/13 15:12:48;;;;;;;;;;;;;;;19.33;54.02;101783.44;5035270;28;20054;-92
2023/10/13 15:15:16;;;;;;;;;;;;;;;19.57;53.40;101786.88;5005762;28;19917;-90
2023/10/13 15:17:47;;;;;;;;;;;;;;;19.33;53.77;101785.19;5020626;28;19953;-91
2023/10/13 15:20:18;;;;;;;;;;;;;;;19.49;53.56;101781.31;4996870;28;19929;-90
2023/10/13 15:22:44;;;;;;;;;;;;;;;19.52;53.40;101790.28;4994835;28;19918;-90
2023/10/13 15:25:20;;;;;;;;;;;;;;;19.42;53.64;101796.09;4994577;28;19918;-92
2023/10/13 15:27:55;;;;;;;;;;;;;;;19.47;53.52;101793.59;4995507;28;19914;-92
2023/10/13 15:30:30;;;;;;;;;;;;;;;19.46;53.38;101789.16;4999304;28;20000;-92
2023/10/13 15:32:58;;;;;;;;;;;;;;;19.54;53.07;101790.34;5020165;28;19978;-92
2023/10/13 15:35:28;;;;;;;;;;;;;;;19.55;53.19;101791.22;5006172;28;19924;-91
2023/10/13 15:37:58;;;;;;;;;;;;;;;19.45;53.42;101795.28;5034532;28;19948;-92
2023/10/13 15:40:27;;;;;;;;;;;;;;;19.48;53.32;101801.59;5018280;28;19919;-93
2023/10/13 15:42:59;;;;;;;;;;;;;;;19.45;53.41;101804.16;4993560;28;19912;-91
2023/10/13 15:45:39;;;;;;;;;;;;;;;19.45;53.42;101797.94;5024885;28;19916;-92
2023/10/13 15:48:04;;;;;;;;;;;;;;;19.48;53.24;101800.72;5028351;28;19920;-93
2023/10/13 15:50:43;;;;;;;;;;;;;;;19.45;53.15;101803.25;5003849;28;19924;-92
2023/10/13 15:53:26;;;;;;;;;;;;;;;19.49;53.14;101802.50;4998811;28;19924;-92
2023/10/13 15:58:56;;;;;;;;;;;;;;;19.55;53.03;101800.06;5034893;28;19935;-93
2023/10/13 16:01:23;;;;;;;;;;;;;;;19.48;53.03;101798.97;5013179;28;19956;-92
2023/10/13 16:03:51;;;;;;;;;;;;;;;19.61;52.66;101805.56;5010364;28;20424;-92
2023/10/13 16:06:17;;;;;;;;;;;;;;;19.59;52.74;101809.03;5020543;28;19981;-96
2023/10/13 16:09:01;;;;;;;;;;;;;;;19.58;52.65;101815.16;5004286;28;19917;-92